sensor_id;sensor_type;location;lat;lon;timestamp;pressure;altitude;pressure_sealevel;temperature;humidity
6835;BME280;3455;42.150;24.734;2023-05-21T00:02:21;67593.63;;;20.93;63.87
6835;BME280;3455;42.150;24.734;2023-05-21T00:04:48;67630.31;;;21.26;62.79
6835;BME280;3455;42.150;24.734;2023-05-21T00:07:15;67648.28;;;21.37;62.40
6835;BME280;3455;42.150;24.734;2023-05-21T00:09:43;67657.72;;;21.50;61.91
6835;BME280;3455;42.150;24.734;2023-05-21T00:12:09;67730.75;;;21.91;60.56
6835;BME280;3455;42.150;24.734;2023-05-21T00:14:37;67664.47;;;21.74;61.14
6835;BME280;3455;42.150;24.734;2023-05-21T00:17:04;67697.84;;;21.81;61.08
6835;BME280;3455;42.150;24.734;2023-05-21T00:19:31;67712.00;;;21.70;61.68
6835;BME280;3455;42.150;24.734;2023-05-21T00:21:58;67642.44;;;21.59;61.74
6835;BME280;3455;42.150;24.734;2023-05-21T00:24:26;67766.75;;;21.55;62.32
6835;BME280;3455;42.150;24.734;2023-05-21T00:26:53;67680.03;;;21.47;62.04
6835;BME280;3455;42.150;24.734;2023-05-21T00:29:20;67688.84;;;21.59;62.31
6835;BME280;3455;42.150;24.734;2023-05-21T00:31:48;67682.03;;;21.62;62.14
6835;BME280;3455;42.150;24.734;2023-05-21T00:34:16;67674.97;;;21.51;62.60
6835;BME280;3455;42.150;24.734;2023-05-21T00:36:43;67687.09;;;21.57;62.53
6835;BME280;3455;42.150;24.734;2023-05-21T00:39:11;67675.22;;;21.65;61.57
6835;BME280;3455;42.150;24.734;2023-05-21T00:41:38;67619.59;;;21.34;62.85
6835;BME280;3455;42.150;24.734;2023-05-21T00:44:05;67604.03;;;21.14;63.97
6835;BME280;3455;42.150;24.734;2023-05-21T00:46:31;67629.31;;;21.18;64.03
6835;BME280;3455;42.150;24.734;2023-05-21T00:49:00;67578.69;;;21.05;64.89
6835;BME280;3455;42.150;24.734;2023-05-21T00:51:27;67565.63;;;20.96;65.19
6835;BME280;3455;42.150;24.734;2023-05-21T00:53:55;67572.66;;;20.75;66.00
6835;BME280;3455;42.150;24.734;2023-05-21T00:56:23;67586.06;;;20.87;66.04
6835;BME280;3455;42.150;24.734;2023-05-21T00:58:51;67620.75;;;21.04;65.39
6835;BME280;3455;42.150;24.734;2023-05-21T01:01:18;67608.19;;;21.06;65.23
6835;BME280;3455;42.150;24.734;2023-05-21T01:03:45;67667.22;;;21.51;63.45
6835;BME280;3455;42.150;24.734;2023-05-21T01:06:14;67706.00;;;21.88;62.28
6835;BME280;3455;42.150;24.734;2023-05-21T01:08:41;67671.25;;;21.39;63.28
6835;BME280;3455;42.150;24.734;2023-05-21T01:11:08;67598.53;;;21.11;64.38
6835;BME280;3455;42.150;24.734;2023-05-21T01:13:38;67648.38;;;21.42;63.39
6835;BME280;3455;42.150;24.734;2023-05-21T01:16:06;67650.44;;;21.30;63.81
6835;BME280;3455;42.150;24.734;2023-05-21T01:18:33;67606.28;;;21.27;63.94
6835;BME280;3455;42.150;24.734;2023-05-21T01:21:01;67614.59;;;21.12;64.73
6835;BME280;3455;42.150;24.734;2023-05-21T01:23:30;67578.50;;;20.80;66.04
6835;BME280;3455;42.150;24.734;2023-05-21T01:25:57;67617.25;;;21.00;65.73
6835;BME280;3455;42.150;24.734;2023-05-21T01:28:24;67582.84;;;20.97;66.05
6835;BME280;3455;42.150;24.734;2023-05-21T01:30:51;67621.34;;;21.04;65.27
6835;BME280;3455;42.150;24.734;2023-05-21T01:33:24;67616.94;;;21.14;65.42
6835;BME280;3455;42.150;24.734;2023-05-21T01:35:59;67596.47;;;21.23;65.10
6835;BME280;3455;42.150;24.734;2023-05-21T01:38:33;67691.50;;;21.48;64.20
6835;BME280;3455;42.150;24.734;2023-05-21T01:41:06;67608.69;;;21.18;64.68
6835;BME280;3455;42.150;24.734;2023-05-21T01:43:37;67607.59;;;21.06;65.09
6835;BME280;3455;42.150;24.734;2023-05-21T01:46:06;67581.69;;;20.96;65.98
6835;BME280;3455;42.150;24.734;2023-05-21T01:48:35;67589.09;;;21.10;65.30
6835;BME280;3455;42.150;24.734;2023-05-21T01:51:04;67624.06;;;20.97;65.54
6835;BME280;3455;42.150;24.734;2023-05-21T01:53:32;67616.03;;;21.27;64.83
6835;BME280;3455;42.150;24.734;2023-05-21T01:55:59;67616.94;;;21.14;65.24
6835;BME280;3455;42.150;24.734;2023-05-21T01:58:27;67566.53;;;20.83;65.75
6835;BME280;3455;42.150;24.734;2023-05-21T02:00:54;67633.56;;;21.15;65.42
6835;BME280;3455;42.150;24.734;2023-05-21T02:03:24;67616.44;;;21.02;65.80
6835;BME280;3455;42.150;24.734;2023-05-21T02:05:51;67636.56;;;21.22;64.54
6835;BME280;3455;42.150;24.734;2023-05-21T02:08:19;67638.47;;;21.33;63.82
6835;BME280;3455;42.150;24.734;2023-05-21T02:10:49;67652.47;;;21.45;64.05
6835;BME280;3455;42.150;24.734;2023-05-21T02:13:15;67674.84;;;21.47;63.52
6835;BME280;3455;42.150;24.734;2023-05-21T02:15:45;67623.56;;;21.02;64.40
6835;BME280;3455;42.150;24.734;2023-05-21T02:18:11;67578.50;;;20.80;65.39
6835;BME280;3455;42.150;24.734;2023-05-21T02:20:41;67560.34;;;20.59;65.96
6835;BME280;3455;42.150;24.734;2023-05-21T02:23:07;67594.28;;;20.83;65.17
6835;BME280;3455;42.150;24.734;2023-05-21T02:25:34;67650.56;;;21.34;63.57
6835;BME280;3455;42.150;24.734;2023-05-21T02:28:03;67662.69;;;21.41;62.92
6835;BME280;3455;42.150;24.734;2023-05-21T02:30:31;67656.88;;;21.35;62.48
6835;BME280;3455;42.150;24.734;2023-05-21T02:32:57;67608.78;;;21.07;63.57
6835;BME280;3455;42.150;24.734;2023-05-21T02:35:25;67627.41;;;21.23;63.15
6835;BME280;3455;42.150;24.734;2023-05-21T02:37:52;67631.03;;;21.04;63.49
6835;BME280;3455;42.150;24.734;2023-05-21T02:40:18;67661.13;;;21.32;62.91
6835;BME280;3455;42.150;24.734;2023-05-21T02:42:45;67674.47;;;21.55;62.08
6835;BME280;3455;42.150;24.734;2023-05-21T02:45:13;67605.88;;;21.04;63.69
6835;BME280;3455;42.150;24.734;2023-05-21T02:47:40;67634.06;;;21.11;63.56
6835;BME280;3455;42.150;24.734;2023-05-21T02:50:07;67634.06;;;21.11;63.19
6835;BME280;3455;42.150;24.734;2023-05-21T02:52:34;67676.03;;;21.48;62.05
6835;BME280;3455;42.150;24.734;2023-05-21T02:55:01;67615.59;;;21.35;61.66
6835;BME280;3455;42.150;24.734;2023-05-21T02:57:28;67635.72;;;21.24;62.09
6835;BME280;3455;42.150;24.734;2023-05-21T02:59:55;67679.78;;;21.65;60.39
6835;BME280;3455;42.150;24.734;2023-05-21T03:02:23;67723.47;;;21.71;60.55
6835;BME280;3455;42.150;24.734;2023-05-21T03:04:50;67651.91;;;21.45;60.71
6835;BME280;3455;42.150;24.734;2023-05-21T03:07:17;67676.38;;;21.66;60.42
6835;BME280;3455;42.150;24.734;2023-05-21T03:09:44;67723.16;;;21.85;60.09
6835;BME280;3455;42.150;24.734;2023-05-21T03:12:11;67673.88;;;21.55;60.76
6835;BME280;3455;42.150;24.734;2023-05-21T03:14:38;67682.66;;;21.35;61.23
6835;BME280;3455;42.150;24.734;2023-05-21T03:17:05;67590.50;;;21.41;61.11
6835;BME280;3455;42.150;24.734;2023-05-21T03:19:33;67669.56;;;21.53;60.79
6835;BME280;3455;42.150;24.734;2023-05-21T03:22:02;67580.09;;;21.20;61.52
6835;BME280;3455;42.150;24.734;2023-05-21T03:24:29;67549.91;;;21.14;62.13
6835;BME280;3455;42.150;24.734;2023-05-21T03:26:56;67650.63;;;21.39;61.27
6835;BME280;3455;42.150;24.734;2023-05-21T03:29:23;67683.53;;;21.50;60.86
6835;BME280;3455;42.150;24.734;2023-05-21T03:31:51;67688.44;;;21.68;60.37
6835;BME280;3455;42.150;24.734;2023-05-21T03:34:18;67691.09;;;21.56;60.59
6835;BME280;3455;42.150;24.734;2023-05-21T03:36:46;67714.59;;;21.70;60.28
6835;BME280;3455;42.150;24.734;2023-05-21T03:39:13;67654.84;;;21.20;61.47
6835;BME280;3455;42.150;24.734;2023-05-21T03:41:40;67544.69;;;20.50;64.06
6835;BME280;3455;42.150;24.734;2023-05-21T03:44:07;67627.41;;;21.23;62.69
6835;BME280;3455;42.150;24.734;2023-05-21T03:46:34;67652.69;;;21.27;62.23
6835;BME280;3455;42.150;24.734;2023-05-21T03:49:01;67645.66;;;21.32;61.70
6835;BME280;3455;42.150;24.734;2023-05-21T03:51:28;67720.66;;;21.73;60.38
6835;BME280;3455;42.150;24.734;2023-05-21T03:53:58;67605.13;;;21.26;61.74
6835;BME280;3455;42.150;24.734;2023-05-21T03:56:25;67620.41;;;21.17;62.44
6835;BME280;3455;42.150;24.734;2023-05-21T03:58:52;67685.66;;;21.43;61.49
6835;BME280;3455;42.150;24.734;2023-05-21T04:01:19;67728.31;;;21.85;60.25
6835;BME280;3455;42.150;24.734;2023-05-21T04:03:46;67715.34;;;21.96;59.98
6835;BME280;3455;42.150;24.734;2023-05-21T04:06:13;67708.16;;;21.81;59.70
6835;BME280;3455;42.150;24.734;2023-05-21T04:08:40;67661.84;;;21.26;61.09
6835;BME280;3455;42.150;24.734;2023-05-21T04:11:08;67644.91;;;21.38;61.90
6835;BME280;3455;42.150;24.734;2023-05-21T04:13:35;67709.66;;;21.68;61.03
6835;BME280;3455;42.150;24.734;2023-05-21T04:16:01;67656.19;;;21.30;61.18
6835;BME280;3455;42.150;24.734;2023-05-21T04:18:28;67645.28;;;21.30;61.80
6835;BME280;3455;42.150;24.734;2023-05-21T04:20:55;67685.53;;;21.65;60.48
6835;BME280;3455;42.150;24.734;2023-05-21T04:23:23;67730.47;;;22.09;58.96
6835;BME280;3455;42.150;24.734;2023-05-21T04:25:50;67779.97;;;22.16;57.82
6835;BME280;3455;42.150;24.734;2023-05-21T04:28:18;67788.31;;;22.65;57.10
6835;BME280;3455;42.150;24.734;2023-05-21T04:30:45;67820.66;;;22.75;56.63
6835;BME280;3455;42.150;24.734;2023-05-21T04:33:12;67806.00;;;22.42;57.09
6835;BME280;3455;42.150;24.734;2023-05-21T04:35:42;67765.00;;;22.44;56.52
6835;BME280;3455;42.150;24.734;2023-05-21T04:38:09;67809.00;;;22.65;56.23
6835;BME280;3455;42.150;24.734;2023-05-21T04:40:37;67794.00;;;22.61;56.81
6835;BME280;3455;42.150;24.734;2023-05-21T04:43:05;67784.81;;;22.62;56.69
6835;BME280;3455;42.150;24.734;2023-05-21T04:45:33;67814.50;;;22.51;57.30
6835;BME280;3455;42.150;24.734;2023-05-21T04:48:00;67808.41;;;22.64;56.49
6835;BME280;3455;42.150;24.734;2023-05-21T04:50:27;67812.41;;;22.63;56.96
6835;BME280;3455;42.150;24.734;2023-05-21T04:52:55;67818.25;;;22.52;57.51
6835;BME280;3455;42.150;24.734;2023-05-21T04:55:23;67833.75;;;22.68;56.98
6835;BME280;3455;42.150;24.734;2023-05-21T04:57:50;67800.00;;;22.43;57.32
6835;BME280;3455;42.150;24.734;2023-05-21T05:00:17;67806.66;;;22.63;56.85
6835;BME280;3455;42.150;24.734;2023-05-21T05:02:45;67871.69;;;22.86;56.50
6835;BME280;3455;42.150;24.734;2023-05-21T05:05:12;67841.59;;;22.89;56.45
6835;BME280;3455;42.150;24.734;2023-05-21T05:07:39;67892.16;;;23.04;56.12
6835;BME280;3455;42.150;24.734;2023-05-21T05:10:07;67890.38;;;23.18;55.92
6835;BME280;3455;42.150;24.734;2023-05-21T05:12:33;67886.22;;;23.10;55.65
6835;BME280;3455;42.150;24.734;2023-05-21T05:15:00;67871.03;;;22.97;56.48
6835;BME280;3455;42.150;24.734;2023-05-21T05:17:27;67874.38;;;23.22;55.41
6835;BME280;3455;42.150;24.734;2023-05-21T05:19:55;67827.16;;;22.69;56.97
6835;BME280;3455;42.150;24.734;2023-05-21T05:22:22;67888.38;;;23.03;56.13
6835;BME280;3455;42.150;24.734;2023-05-21T05:24:49;67899.75;;;23.26;55.50
6835;BME280;3455;42.150;24.734;2023-05-21T05:27:16;67837.34;;;23.08;55.24
6835;BME280;3455;42.150;24.734;2023-05-21T05:29:43;67931.09;;;23.45;54.64
6835;BME280;3455;42.150;24.734;2023-05-21T05:32:10;67939.19;;;23.47;53.81
6835;BME280;3455;42.150;24.734;2023-05-21T05:34:36;67926.91;;;23.68;53.73
6835;BME280;3455;42.150;24.734;2023-05-21T05:37:05;67964.97;;;23.75;53.61
6835;BME280;3455;42.150;24.734;2023-05-21T05:39:31;67941.59;;;23.54;53.88
6835;BME280;3455;42.150;24.734;2023-05-21T05:41:58;67893.72;;;23.28;53.90
6835;BME280;3455;42.150;24.734;2023-05-21T05:44:25;67907.25;;;23.28;54.54
6835;BME280;3455;42.150;24.734;2023-05-21T05:46:52;67936.69;;;23.36;54.81
6835;BME280;3455;42.150;24.734;2023-05-21T05:49:19;67782.47;;;22.91;55.69
6835;BME280;3455;42.150;24.734;2023-05-21T05:51:46;67846.00;;;23.11;55.76
6835;BME280;3455;42.150;24.734;2023-05-21T05:54:14;67861.34;;;23.02;56.92
6835;BME280;3455;42.150;24.734;2023-05-21T05:56:40;67869.84;;;22.96;57.19
6835;BME280;3455;42.150;24.734;2023-05-21T05:59:07;67823.81;;;22.91;57.51
6835;BME280;3455;42.150;24.734;2023-05-21T06:01:34;67886.81;;;23.26;56.70
6835;BME280;3455;42.150;24.734;2023-05-21T06:04:01;67794.34;;;22.47;57.90
6835;BME280;3455;42.150;24.734;2023-05-21T06:06:27;67752.69;;;22.29;59.33
6835;BME280;3455;42.150;24.734;2023-05-21T06:08:54;67795.00;;;22.52;58.51
6835;BME280;3455;42.150;24.734;2023-05-21T06:11:22;67855.44;;;22.76;57.86
6835;BME280;3455;42.150;24.734;2023-05-21T06:13:49;67815.56;;;22.64;57.87
6835;BME280;3455;42.150;24.734;2023-05-21T06:16:16;67858.09;;;22.97;57.94
6835;BME280;3455;42.150;24.734;2023-05-21T06:18:42;67829.84;;;22.74;58.24
6835;BME280;3455;42.150;24.734;2023-05-21T06:21:09;67888.88;;;22.99;58.12
6835;BME280;3455;42.150;24.734;2023-05-21T06:23:36;67878.78;;;22.97;58.38
6835;BME280;3455;42.150;24.734;2023-05-21T06:26:03;67807.34;;;22.68;59.29
6835;BME280;3455;42.150;24.734;2023-05-21T06:28:32;67858.09;;;22.97;59.00
6835;BME280;3455;42.150;24.734;2023-05-21T06:30:58;67828.66;;;22.89;58.99
6835;BME280;3455;42.150;24.734;2023-05-21T06:33:26;67810.47;;;22.84;57.67
6835;BME280;3455;42.150;24.734;2023-05-21T06:35:52;67883.38;;;23.12;57.20
6835;BME280;3455;42.150;24.734;2023-05-21T06:38:19;67920.00;;;23.35;56.08
6835;BME280;3455;42.150;24.734;2023-05-21T06:40:46;67932.28;;;23.46;55.92
6835;BME280;3455;42.150;24.734;2023-05-21T06:43:13;67955.63;;;23.66;54.93
6835;BME280;3455;42.150;24.734;2023-05-21T06:45:41;67978.50;;;23.59;55.05
6835;BME280;3455;42.150;24.734;2023-05-21T06:48:08;68025.25;;;24.32;53.32
6835;BME280;3455;42.150;24.734;2023-05-21T06:50:36;68026.94;;;24.29;52.94
6835;BME280;3455;42.150;24.734;2023-05-21T06:53:03;68073.06;;;24.65;51.35
6835;BME280;3455;42.150;24.734;2023-05-21T06:55:29;68101.88;;;24.83;50.76
6835;BME280;3455;42.150;24.734;2023-05-21T06:57:56;68065.78;;;24.45;52.27
6835;BME280;3455;42.150;24.734;2023-05-21T07:00:23;68047.66;;;24.61;50.85
6835;BME280;3455;42.150;24.734;2023-05-21T07:02:51;68108.84;;;24.69;50.18
6835;BME280;3455;42.150;24.734;2023-05-21T07:05:18;68070.66;;;24.95;49.88
6835;BME280;3455;42.150;24.734;2023-05-21T07:07:45;68112.16;;;24.95;49.55
6835;BME280;3455;42.150;24.734;2023-05-21T07:10:12;68186.09;;;25.37;49.35
6835;BME280;3455;42.150;24.734;2023-05-21T07:12:39;68144.34;;;25.23;50.65
6835;BME280;3455;42.150;24.734;2023-05-21T07:15:06;68118.75;;;25.10;50.59
6835;BME280;3455;42.150;24.734;2023-05-21T07:17:34;68144.09;;;25.09;50.93
6835;BME280;3455;42.150;24.734;2023-05-21T07:20:03;68105.03;;;25.00;51.13
6835;BME280;3455;42.150;24.734;2023-05-21T07:22:32;68175.72;;;25.37;50.59
6835;BME280;3455;42.150;24.734;2023-05-21T07:24:58;68183.91;;;25.44;50.01
6835;BME280;3455;42.150;24.734;2023-05-21T07:27:25;68174.84;;;25.54;50.02
6835;BME280;3455;42.150;24.734;2023-05-21T07:29:52;68188.72;;;25.57;49.99
6835;BME280;3455;42.150;24.734;2023-05-21T07:32:18;68210.53;;;25.86;48.81
6835;BME280;3455;42.150;24.734;2023-05-21T07:34:45;68286.66;;;26.16;47.93
6835;BME280;3455;42.150;24.734;2023-05-21T07:37:13;68258.19;;;26.05;46.90
6835;BME280;3455;42.150;24.734;2023-05-21T07:39:40;68253.50;;;26.37;45.95
6835;BME280;3455;42.150;24.734;2023-05-21T07:42:06;68345.13;;;26.58;45.86
6835;BME280;3455;42.150;24.734;2023-05-21T07:44:33;68411.72;;;27.03;43.18
6835;BME280;3455;42.150;24.734;2023-05-21T07:47:00;68403.03;;;27.20;42.71
6835;BME280;3455;42.150;24.734;2023-05-21T07:49:26;68401.53;;;27.16;42.42
6835;BME280;3455;42.150;24.734;2023-05-21T07:51:53;68406.75;;;27.16;41.04
6835;BME280;3455;42.150;24.734;2023-05-21T07:54:21;68462.66;;;27.58;41.23
6835;BME280;3455;42.150;24.734;2023-05-21T07:56:48;68600.34;;;28.24;39.24
6835;BME280;3455;42.150;24.734;2023-05-21T07:59:15;68483.75;;;27.56;39.78
6835;BME280;3455;42.150;24.734;2023-05-21T08:01:42;68592.53;;;28.24;37.65
6835;BME280;3455;42.150;24.734;2023-05-21T08:04:09;68556.34;;;28.27;37.18
6835;BME280;3455;42.150;24.734;2023-05-21T08:06:35;68579.56;;;28.49;36.54
6835;BME280;3455;42.150;24.734;2023-05-21T08:09:03;68647.56;;;29.20;35.36
6835;BME280;3455;42.150;24.734;2023-05-21T08:11:31;68649.56;;;28.58;36.09
6835;BME280;3455;42.150;24.734;2023-05-21T08:13:58;68608.84;;;28.70;36.15
6835;BME280;3455;42.150;24.734;2023-05-21T08:16:25;68709.41;;;29.22;35.20
6835;BME280;3455;42.150;24.734;2023-05-21T08:18:52;68622.78;;;28.69;34.97
6835;BME280;3455;42.150;24.734;2023-05-21T08:21:19;68595.78;;;28.50;34.29
6835;BME280;3455;42.150;24.734;2023-05-21T08:23:45;68690.25;;;29.03;34.07
6835;BME280;3455;42.150;24.734;2023-05-21T08:26:12;68776.94;;;29.56;33.23
6835;BME280;3455;42.150;24.734;2023-05-21T08:28:42;68842.16;;;29.87;32.44
6835;BME280;3455;42.150;24.734;2023-05-21T08:31:08;68851.88;;;30.14;31.62
6835;BME280;3455;42.150;24.734;2023-05-21T08:33:35;68869.94;;;30.37;31.87
6835;BME280;3455;42.150;24.734;2023-05-21T08:36:03;69052.31;;;31.16;31.22
6835;BME280;3455;42.150;24.734;2023-05-21T08:38:30;68925.13;;;30.55;30.80
6835;BME280;3455;42.150;24.734;2023-05-21T08:40:57;68953.69;;;30.57;31.44
6835;BME280;3455;42.150;24.734;2023-05-21T08:43:26;68924.50;;;30.50;31.56
6835;BME280;3455;42.150;24.734;2023-05-21T08:45:55;68869.94;;;30.37;31.11
6835;BME280;3455;42.150;24.734;2023-05-21T08:48:23;68997.41;;;31.04;30.02
6835;BME280;3455;42.150;24.734;2023-05-21T08:50:50;68951.44;;;30.64;30.16
6835;BME280;3455;42.150;24.734;2023-05-21T08:53:17;68926.84;;;30.52;28.74
6835;BME280;3455;42.150;24.734;2023-05-21T08:55:45;68793.94;;;29.86;29.33
6835;BME280;3455;42.150;24.734;2023-05-21T08:58:12;68681.44;;;29.16;32.00
6835;BME280;3455;42.150;24.734;2023-05-21T09:00:39;68715.13;;;29.18;31.92
6835;BME280;3455;42.150;24.734;2023-05-21T09:03:07;68837.06;;;29.97;30.97
6835;BME280;3455;42.150;24.734;2023-05-21T09:05:38;68873.00;;;30.49;29.87
6835;BME280;3455;42.150;24.734;2023-05-21T09:08:12;68931.00;;;30.81;29.77
6835;BME280;3455;42.150;24.734;2023-05-21T09:10:43;68825.06;;;30.09;30.58
6835;BME280;3455;42.150;24.734;2023-05-21T09:13:12;68853.56;;;30.11;30.12
6835;BME280;3455;42.150;24.734;2023-05-21T09:15:39;68993.88;;;31.01;28.59
6835;BME280;3455;42.150;24.734;2023-05-21T09:18:08;69102.09;;;31.77;27.50
6835;BME280;3455;42.150;24.734;2023-05-21T09:20:35;69000.03;;;31.25;26.67
6835;BME280;3455;42.150;24.734;2023-05-21T09:23:02;69003.03;;;31.32;26.14
6835;BME280;3455;42.150;24.734;2023-05-21T09:25:30;69105.38;;;31.62;26.73
6835;BME280;3455;42.150;24.734;2023-05-21T09:27:57;69027.06;;;31.44;26.13
6835;BME280;3455;42.150;24.734;2023-05-21T09:30:24;68865.59;;;30.40;27.74
6835;BME280;3455;42.150;24.734;2023-05-21T09:32:54;68918.19;;;30.58;28.62
6835;BME280;3455;42.150;24.734;2023-05-21T09:35:23;68883.19;;;30.51;28.38
6835;BME280;3455;42.150;24.734;2023-05-21T09:37:51;68849.13;;;30.25;27.93
6835;BME280;3455;42.150;24.734;2023-05-21T09:40:20;68741.81;;;29.75;28.18
6835;BME280;3455;42.150;24.734;2023-05-21T09:42:48;68855.66;;;30.36;27.56
6835;BME280;3455;42.150;24.734;2023-05-21T09:45:18;68941.50;;;30.60;28.74
6835;BME280;3455;42.150;24.734;2023-05-21T09:47:46;68855.00;;;30.31;29.28
6835;BME280;3455;42.150;24.734;2023-05-21T09:50:15;68793.41;;;29.91;30.06
6835;BME280;3455;42.150;24.734;2023-05-21T09:52:44;68662.31;;;29.17;30.80
6835;BME280;3455;42.150;24.734;2023-05-21T09:55:12;68734.34;;;29.62;29.76
6835;BME280;3455;42.150;24.734;2023-05-21T09:57:40;68808.41;;;29.81;29.74
6835;BME280;3455;42.150;24.734;2023-05-21T10:00:09;68705.59;;;29.21;31.02
6835;BME280;3455;42.150;24.734;2023-05-21T10:02:44;68605.44;;;28.35;31.88
6835;BME280;3455;42.150;24.734;2023-05-21T10:05:12;68514.03;;;28.06;33.32
6835;BME280;3455;42.150;24.734;2023-05-21T10:07:40;68598.19;;;28.52;33.03
6835;BME280;3455;42.150;24.734;2023-05-21T10:10:12;68606.66;;;28.78;32.29
6835;BME280;3455;42.150;24.734;2023-05-21T10:12:40;68578.31;;;28.44;32.90
6835;BME280;3455;42.150;24.734;2023-05-21T10:15:12;68542.19;;;28.30;32.31
6835;BME280;3455;42.150;24.734;2023-05-21T10:17:39;68553.69;;;28.43;32.82
6835;BME280;3455;42.150;24.734;2023-05-21T10:20:09;68520.88;;;27.62;34.35
6835;BME280;3455;42.150;24.734;2023-05-21T10:22:36;68390.63;;;27.41;34.87
6835;BME280;3455;42.150;24.734;2023-05-21T10:25:05;68436.84;;;27.36;36.25
6835;BME280;3455;42.150;24.734;2023-05-21T10:27:33;68463.81;;;27.80;35.58
6835;BME280;3455;42.150;24.734;2023-05-21T10:30:00;68462.72;;;27.84;36.09
6835;BME280;3455;42.150;24.734;2023-05-21T10:32:27;68451.53;;;27.69;35.88
6835;BME280;3455;42.150;24.734;2023-05-21T10:34:54;68416.13;;;27.25;36.49
6835;BME280;3455;42.150;24.734;2023-05-21T10:37:23;68502.91;;;27.80;34.45
6835;BME280;3455;42.150;24.734;2023-05-21T10:39:51;68457.31;;;27.70;35.54
6835;BME280;3455;42.150;24.734;2023-05-21T10:42:20;68610.56;;;28.67;34.43
6835;BME280;3455;42.150;24.734;2023-05-21T10:45:01;68722.91;;;29.34;32.76
6835;BME280;3455;42.150;24.734;2023-05-21T10:48:06;68922.25;;;30.37;30.51
6835;BME280;3455;42.150;24.734;2023-05-21T10:50:53;68938.22;;;30.76;30.49
6835;BME280;3455;42.150;24.734;2023-05-21T10:53:32;68926.56;;;30.75;29.59
6835;BME280;3455;42.150;24.734;2023-05-21T10:56:15;68737.09;;;29.50;31.00
6835;BME280;3455;42.150;24.734;2023-05-21T10:59:05;68718.81;;;29.30;30.93
6835;BME280;3455;42.150;24.734;2023-05-21T11:01:36;68588.91;;;28.53;31.10
6835;BME280;3455;42.150;24.734;2023-05-21T11:04:03;68542.59;;;28.17;31.12
6835;BME280;3455;42.150;24.734;2023-05-21T11:06:30;68540.25;;;28.35;31.57
6835;BME280;3455;42.150;24.734;2023-05-21T11:09:00;68735.78;;;29.40;30.96
6835;BME280;3455;42.150;24.734;2023-05-21T11:11:42;69023.41;;;31.32;28.26
6835;BME280;3455;42.150;24.734;2023-05-21T11:14:31;68967.28;;;30.74;28.82
6835;BME280;3455;42.150;24.734;2023-05-21T11:17:01;68630.41;;;28.96;31.25
6835;BME280;3455;42.150;24.734;2023-05-21T11:19:33;68599.84;;;28.49;32.56
6835;BME280;3455;42.150;24.734;2023-05-21T11:22:04;68510.13;;;28.16;33.49
6835;BME280;3455;42.150;24.734;2023-05-21T11:24:32;68462.19;;;27.47;34.85
6835;BME280;3455;42.150;24.734;2023-05-21T11:27:00;68398.16;;;27.23;35.89
6835;BME280;3455;42.150;24.734;2023-05-21T11:29:36;68526.94;;;28.17;34.31
6835;BME280;3455;42.150;24.734;2023-05-21T11:32:07;68544.41;;;28.23;33.82
6835;BME280;3455;42.150;24.734;2023-05-21T11:34:38;68449.75;;;27.68;34.75
6835;BME280;3455;42.150;24.734;2023-05-21T11:37:22;68457.03;;;27.51;35.15
6835;BME280;3455;42.150;24.734;2023-05-21T11:39:51;68464.34;;;27.55;34.54
6835;BME280;3455;42.150;24.734;2023-05-21T11:42:27;68476.81;;;27.96;34.79
6835;BME280;3455;42.150;24.734;2023-05-21T11:44:55;68516.84;;;27.99;34.46
6835;BME280;3455;42.150;24.734;2023-05-21T11:47:25;68580.31;;;28.02;34.02
6835;BME280;3455;42.150;24.734;2023-05-21T11:49:52;68401.59;;;27.21;35.51
6835;BME280;3455;42.150;24.734;2023-05-21T11:52:20;68480.94;;;28.00;34.78
6835;BME280;3455;42.150;24.734;2023-05-21T11:54:48;68426.31;;;27.47;35.42
6835;BME280;3455;42.150;24.734;2023-05-21T11:57:17;68406.44;;;27.34;35.31
6835;BME280;3455;42.150;24.734;2023-05-21T11:59:44;68374.31;;;27.15;36.10
6835;BME280;3455;42.150;24.734;2023-05-21T12:02:13;68487.03;;;27.82;34.78
6835;BME280;3455;42.150;24.734;2023-05-21T12:04:43;68487.78;;;27.92;34.61
6835;BME280;3455;42.150;24.734;2023-05-21T12:07:11;68375.94;;;27.08;35.84
6835;BME280;3455;42.150;24.734;2023-05-21T12:09:39;68474.06;;;27.66;35.25
6835;BME280;3455;42.150;24.734;2023-05-21T12:12:07;68428.00;;;27.65;34.79
6835;BME280;3455;42.150;24.734;2023-05-21T12:14:34;68485.94;;;27.49;35.05
6835;BME280;3455;42.150;24.734;2023-05-21T12:17:01;68445.97;;;27.46;35.10
6835;BME280;3455;42.150;24.734;2023-05-21T12:19:31;68453.53;;;27.48;35.35
6835;BME280;3455;42.150;24.734;2023-05-21T12:22:01;68397.22;;;27.35;35.93
6835;BME280;3455;42.150;24.734;2023-05-21T12:24:28;68399.25;;;27.19;35.64
6835;BME280;3455;42.150;24.734;2023-05-21T12:26:56;68427.34;;;27.39;34.85
6835;BME280;3455;42.150;24.734;2023-05-21T12:29:24;68420.03;;;27.35;35.05
6835;BME280;3455;42.150;24.734;2023-05-21T12:31:51;68401.41;;;27.07;36.30
6835;BME280;3455;42.150;24.734;2023-05-21T12:34:36;68385.19;;;27.07;36.64
6835;BME280;3455;42.150;24.734;2023-05-21T12:37:05;68384.75;;;27.15;36.44
6835;BME280;3455;42.150;24.734;2023-05-21T12:39:36;68449.94;;;27.61;35.64
6835;BME280;3455;42.150;24.734;2023-05-21T12:42:03;68446.09;;;27.55;36.16
6835;BME280;3455;42.150;24.734;2023-05-21T12:44:30;68469.41;;;27.67;36.63
6835;BME280;3455;42.150;24.734;2023-05-21T12:46:57;68428.28;;;27.63;36.20
6835;BME280;3455;42.150;24.734;2023-05-21T12:49:32;68436.88;;;27.56;37.23
6835;BME280;3455;42.150;24.734;2023-05-21T12:52:06;68440.69;;;27.42;38.53
6835;BME280;3455;42.150;24.734;2023-05-21T12:54:36;68390.09;;;27.25;39.73
6835;BME280;3455;42.150;24.734;2023-05-21T12:57:08;68481.22;;;27.82;38.38
6835;BME280;3455;42.150;24.734;2023-05-21T12:59:51;68533.13;;;28.04;36.93
6835;BME280;3455;42.150;24.734;2023-05-21T13:02:22;68553.94;;;28.41;35.43
6835;BME280;3455;42.150;24.734;2023-05-21T13:04:54;68543.38;;;28.31;35.52
6835;BME280;3455;42.150;24.734;2023-05-21T13:07:23;68637.56;;;28.91;34.63
6835;BME280;3455;42.150;24.734;2023-05-21T13:09:50;68713.44;;;29.21;34.05
6835;BME280;3455;42.150;24.734;2023-05-21T13:12:18;68793.00;;;29.63;32.88
6835;BME280;3455;42.150;24.734;2023-05-21T13:14:45;68770.47;;;29.70;33.83
6835;BME280;3455;42.150;24.734;2023-05-21T13:17:12;68822.56;;;29.98;33.56